METAR Data

Data at: 0502 UTC 20 Oct 2018

METAR for:KSDL (Scottsdale Muni, AZ, US)
Text:KSDL 200453Z AUTO 07005KT 10SM CLR 25/07 A2999 RMK AO2 SLP134 T02500072
Temperature: 25.0°C ( 77°F)
Dewpoint: 7.2°C ( 45°F) [RH = 32%]
Pressure (altimeter):29.99 inches Hg (1015.7 mb) [Sea level pressure: 1013.4 mb]
Winds:from the ENE (70 degrees) at 6 MPH (5 knots; 2.6 m/s)
Visibility:10 or more sm (16+ km)
Ceiling:at least 12,000 feet AGL
Clouds:sky clear below 12,000 feet AGL
QC Flag:automated observation with no human augmentation